Tucson, AZ (85749)

1:49 PM MST on March 03, 2015 (GMT -0700)
Tanque Verde Acres | Change Station
CLOSE
Current Station
Personal Weather Station
Location: Tucson, AZ
Elevation: 2546 ft
Nearby Weather Stations

Elev 2546 ft 32.25 °N, 110.79 °W | Updated 2 seconds ago

Clear
Clear
63.6 °F
Feels Like 63.6 °F
N
3.0
Wind Variable Wind from NW
Gusts 11.0 mph

Today
High -- | Low -- °F
--% Chance of Precip.
Yesterday
High -- | Low -- °F
Precip. -- in
6:48 AM 6:22 PM
Waxing Gibbous, 97% visible
Pressure 29.85 in
Visibility 10.0 miles
Clouds Clear
Dew Point 32 °F
Humidity 31%
Rainfall 0.00 in
Snow Depth Not available.
UV 8 out of 12
Pollen 7.60 out of 12
Air Quality Not available.
Flu Activity Not available.
METAR KDMA 031958Z AUTO 12003KT 10SM CLR 15/03 A2990 RMK AO2 SLP106 T01470026 $

More Conditions Fewer Conditions

Pressure 29.85 in
Visibility 10.0 miles
Clouds Clear
Dew Point 32 °F
Humidity 31%
Rainfall 0.00 in
Snow Depth Not available.
UV 8 out of 12
Pollen 7.60 out of 12
Air Quality Not available.
Flu Activity Not available.
METAR KDMA 031958Z AUTO 12003KT 10SM CLR 15/03 A2990 RMK AO2 SLP106 T01470026 $

More Conditions Fewer Conditions

10-Day Weather Forecast

Almanac

Astronomy

Mar. 03, 2015 Rise Set
Actual Time
Civil Twilight
Nautical Twilight
Astronomical Twilight
Moon
Length of Visible Light
Length of Day
Tomorrow will be .
, % of the Moon is Illuminated

Today's Extremes

State Highs State Lows

Community

WunderPhotos

Upload Photos

1,802,246 photos uploaded!

WunderBlogs® & News

Nearby

Air Quality

  Air Quality AQ Index Pollutant
Not available.

Snow Depth

Station Depth Elevation

Earthquake Activity

City Distance Mag. Time & Date
Minimum magnitude displayed is 2.5.

Coastal Water Temperatures

Place Temperature

Nearby Weather Stations